sensor_id;sensor_type;location;lat;lon;timestamp;pressure;altitude;pressure_sealevel;temperature;humidity
32298;BME280;18782;48.984;8.548;2022-12-05T00:01:14;99843.00;;;3.97;100.00
32298;BME280;18782;48.984;8.548;2022-12-05T00:03:43;99847.38;;;3.99;100.00
32298;BME280;18782;48.984;8.548;2022-12-05T00:06:11;99856.06;;;4.03;100.00
32298;BME280;18782;48.984;8.548;2022-12-05T00:08:38;99857.84;;;4.05;100.00
32298;BME280;18782;48.984;8.548;2022-12-05T00:11:10;99864.78;;;4.08;100.00
32298;BME280;18782;48.984;8.548;2022-12-05T00:13:39;99869.09;;;4.09;100.00
32298;BME280;18782;48.984;8.548;2022-12-05T00:16:10;99863.81;;;4.06;100.00
32298;BME280;18782;48.984;8.548;2022-12-05T00:18:38;99872.44;;;4.08;100.00
32298;BME280;18782;48.984;8.548;2022-12-05T00:21:07;99867.19;;;4.05;100.00
32298;BME280;18782;48.984;8.548;2022-12-05T00:23:38;99860.41;;;4.05;100.00
32298;BME280;18782;48.984;8.548;2022-12-05T00:26:05;99859.69;;;4.08;100.00
32298;BME280;18782;48.984;8.548;2022-12-05T00:28:34;99864.00;;;4.09;100.00
32298;BME280;18782;48.984;8.548;2022-12-05T00:31:04;99859.69;;;4.08;100.00
32298;BME280;18782;48.984;8.548;2022-12-05T00:33:33;99864.84;;;4.09;100.00
32298;BME280;18782;48.984;8.548;2022-12-05T00:36:02;99869.94;;;4.09;100.00
32298;BME280;18782;48.984;8.548;2022-12-05T00:38:30;99866.16;;;4.01;100.00
32298;BME280;18782;48.984;8.548;2022-12-05T00:41:01;99876.78;;;3.92;100.00
32298;BME280;18782;48.984;8.548;2022-12-05T00:43:29;99873.25;;;3.90;100.00
32298;BME280;18782;48.984;8.548;2022-12-05T00:46:00;99879.50;;;3.79;99.89
32298;BME280;18782;48.984;8.548;2022-12-05T00:48:27;99874.41;;;3.79;100.00
32298;BME280;18782;48.984;8.548;2022-12-05T00:51:00;99878.69;;;3.80;100.00
32298;BME280;18782;48.984;8.548;2022-12-05T00:53:28;99879.66;;;3.82;100.00
32298;BME280;18782;48.984;8.548;2022-12-05T00:56:00;99880.66;;;3.86;100.00
32298;BME280;18782;48.984;8.548;2022-12-05T00:58:28;99887.66;;;3.90;100.00
32298;BME280;18782;48.984;8.548;2022-12-05T01:00:55;99878.34;;;3.90;100.00
32298;BME280;18782;48.984;8.548;2022-12-05T01:03:23;99876.03;;;3.95;100.00
32298;BME280;18782;48.984;8.548;2022-12-05T01:05:51;99883.00;;;3.81;99.55
32298;BME280;18782;48.984;8.548;2022-12-05T01:08:20;99883.13;;;3.84;98.79
32298;BME280;18782;48.984;8.548;2022-12-05T01:10:52;99885.06;;;3.88;99.08
32298;BME280;18782;48.984;8.548;2022-12-05T01:13:20;99877.56;;;3.91;98.08
32298;BME280;18782;48.984;8.548;2022-12-05T01:15:47;99881.34;;;3.82;99.36
32298;BME280;18782;48.984;8.548;2022-12-05T01:18:15;99879.78;;;3.85;99.12
32298;BME280;18782;48.984;8.548;2022-12-05T01:20:43;99882.22;;;3.82;98.95
32298;BME280;18782;48.984;8.548;2022-12-05T01:23:11;99884.75;;;3.82;99.08
32298;BME280;18782;48.984;8.548;2022-12-05T01:25:41;99887.13;;;3.79;99.73
32298;BME280;18782;48.984;8.548;2022-12-05T01:28:09;99891.59;;;3.83;98.84
32298;BME280;18782;48.984;8.548;2022-12-05T01:30:38;99900.84;;;3.81;99.27
32298;BME280;18782;48.984;8.548;2022-12-05T01:33:06;99901.59;;;3.80;99.39
32298;BME280;18782;48.984;8.548;2022-12-05T01:35:35;99915.13;;;3.79;99.78
32298;BME280;18782;48.984;8.548;2022-12-05T01:38:03;99903.28;;;3.80;99.25
32298;BME280;18782;48.984;8.548;2022-12-05T01:40:33;99905.25;;;3.85;99.85
32298;BME280;18782;48.984;8.548;2022-12-05T01:43:05;99913.88;;;3.87;100.00
32298;BME280;18782;48.984;8.548;2022-12-05T01:45:35;99912.25;;;3.89;99.57
32298;BME280;18782;48.984;8.548;2022-12-05T01:48:05;99915.78;;;3.91;99.31
32298;BME280;18782;48.984;8.548;2022-12-05T01:50:36;99903.69;;;3.87;99.53
32298;BME280;18782;48.984;8.548;2022-12-05T01:53:04;99904.81;;;3.76;98.82
32298;BME280;18782;48.984;8.548;2022-12-05T01:55:33;99904.66;;;3.73;99.54
32298;BME280;18782;48.984;8.548;2022-12-05T01:58:04;99914.09;;;3.76;100.00
32298;BME280;18782;48.984;8.548;2022-12-05T02:00:33;99921.66;;;3.74;99.76
32298;BME280;18782;48.984;8.548;2022-12-05T02:03:05;99909.00;;;3.76;99.62
32298;BME280;18782;48.984;8.548;2022-12-05T02:05:35;99915.00;;;3.76;99.47
32298;BME280;18782;48.984;8.548;2022-12-05T02:08:05;99922.53;;;3.75;99.14
32298;BME280;18782;48.984;8.548;2022-12-05T02:10:36;99920.97;;;3.77;100.00
32298;BME280;18782;48.984;8.548;2022-12-05T02:13:33;99915.13;;;3.79;99.85
32298;BME280;18782;48.984;8.548;2022-12-05T02:16:07;99931.28;;;3.80;99.48
32298;BME280;18782;48.984;8.548;2022-12-05T02:18:44;99928.66;;;3.78;99.83
32298;BME280;18782;48.984;8.548;2022-12-05T02:21:43;99935.50;;;3.79;100.00
32298;BME280;18782;48.984;8.548;2022-12-05T02:24:26;99942.50;;;3.83;99.74
32298;BME280;18782;48.984;8.548;2022-12-05T02:27:15;99948.53;;;3.85;98.86
32298;BME280;18782;48.984;8.548;2022-12-05T02:30:08;99949.34;;;3.84;99.65
32298;BME280;18782;48.984;8.548;2022-12-05T02:33:03;99945.84;;;3.82;99.45
32298;BME280;18782;48.984;8.548;2022-12-05T02:35:40;99950.22;;;3.85;99.57
32298;BME280;18782;48.984;8.548;2022-12-05T02:38:18;99945.06;;;3.83;98.76
32298;BME280;18782;48.984;8.548;2022-12-05T02:40:54;99948.41;;;3.82;99.31
32298;BME280;18782;48.984;8.548;2022-12-05T02:43:30;99948.53;;;3.85;100.00
32298;BME280;18782;48.984;8.548;2022-12-05T02:46:04;99952.88;;;3.86;99.10
32298;BME280;18782;48.984;8.548;2022-12-05T02:48:35;99958.09;;;3.89;99.49
32298;BME280;18782;48.984;8.548;2022-12-05T02:51:06;99953.00;;;3.89;98.43
32298;BME280;18782;48.984;8.548;2022-12-05T02:53:36;99959.84;;;3.90;99.27
32298;BME280;18782;48.984;8.548;2022-12-05T02:56:05;99952.38;;;3.93;99.61
32298;BME280;18782;48.984;8.548;2022-12-05T02:58:37;99959.28;;;3.96;98.79
32298;BME280;18782;48.984;8.548;2022-12-05T03:01:08;99962.06;;;4.01;98.56
32298;BME280;18782;48.984;8.548;2022-12-05T03:03:37;99965.41;;;4.00;99.05
32298;BME280;18782;48.984;8.548;2022-12-05T03:06:08;99978.88;;;3.97;98.14
32298;BME280;18782;48.984;8.548;2022-12-05T03:08:41;99978.94;;;3.99;98.24
32298;BME280;18782;48.984;8.548;2022-12-05T03:11:11;99971.06;;;3.94;99.18
32298;BME280;18782;48.984;8.548;2022-12-05T03:13:42;99977.19;;;3.98;99.16
32298;BME280;18782;48.984;8.548;2022-12-05T03:16:17;99978.31;;;4.03;98.37
32298;BME280;18782;48.984;8.548;2022-12-05T03:18:50;99976.63;;;4.03;99.50
32298;BME280;18782;48.984;8.548;2022-12-05T03:21:24;99968.19;;;4.04;99.15
32298;BME280;18782;48.984;8.548;2022-12-05T03:23:57;99969.06;;;4.05;99.80
32298;BME280;18782;48.984;8.548;2022-12-05T03:26:43;99971.09;;;4.12;99.03
32298;BME280;18782;48.984;8.548;2022-12-05T03:29:20;99966.91;;;4.12;99.84
32298;BME280;18782;48.984;8.548;2022-12-05T03:31:57;99960.91;;;4.12;99.28
32298;BME280;18782;48.984;8.548;2022-12-05T03:34:36;99964.44;;;4.14;98.99
32298;BME280;18782;48.984;8.548;2022-12-05T03:37:11;99966.34;;;4.18;99.13
32298;BME280;18782;48.984;8.548;2022-12-05T03:39:43;99955.34;;;4.19;100.00
32298;BME280;18782;48.984;8.548;2022-12-05T03:42:13;99951.06;;;4.18;99.56
32298;BME280;18782;48.984;8.548;2022-12-05T03:44:46;99954.53;;;4.20;99.15
32298;BME280;18782;48.984;8.548;2022-12-05T03:47:22;99954.72;;;4.23;98.21
32298;BME280;18782;48.984;8.548;2022-12-05T03:49:55;99958.03;;;4.22;99.48
32298;BME280;18782;48.984;8.548;2022-12-05T03:52:29;99954.72;;;4.23;99.92
32298;BME280;18782;48.984;8.548;2022-12-05T03:55:22;99957.25;;;4.23;99.67
32298;BME280;18782;48.984;8.548;2022-12-05T03:57:54;99949.63;;;4.23;99.08
32298;BME280;18782;48.984;8.548;2022-12-05T04:00:24;99958.19;;;4.25;100.00
32298;BME280;18782;48.984;8.548;2022-12-05T04:02:56;99956.28;;;4.21;100.00
32298;BME280;18782;48.984;8.548;2022-12-05T04:05:30;99965.69;;;4.22;100.00
32298;BME280;18782;48.984;8.548;2022-12-05T04:08:03;99964.81;;;4.22;99.78
32298;BME280;18782;48.984;8.548;2022-12-05T04:10:36;99971.56;;;4.21;99.13
32298;BME280;18782;48.984;8.548;2022-12-05T04:13:15;99970.00;;;4.23;99.36
32298;BME280;18782;48.984;8.548;2022-12-05T04:15:48;99964.97;;;4.25;99.34
32298;BME280;18782;48.984;8.548;2022-12-05T04:18:38;99956.47;;;4.24;99.43
32298;BME280;18782;48.984;8.548;2022-12-05T04:21:09;99964.91;;;4.23;98.36
32298;BME280;18782;48.984;8.548;2022-12-05T04:23:57;99968.56;;;4.28;97.98
32298;BME280;18782;48.984;8.548;2022-12-05T04:26:45;99966.06;;;4.30;98.54
32298;BME280;18782;48.984;8.548;2022-12-05T04:29:18;99970.44;;;4.32;98.38
32298;BME280;18782;48.984;8.548;2022-12-05T04:31:51;99967.88;;;4.32;99.07
32298;BME280;18782;48.984;8.548;2022-12-05T04:34:23;99980.50;;;4.29;99.85
32298;BME280;18782;48.984;8.548;2022-12-05T04:36:54;99980.31;;;4.26;98.96
32298;BME280;18782;48.984;8.548;2022-12-05T04:39:26;99982.63;;;4.22;99.40
32298;BME280;18782;48.984;8.548;2022-12-05T04:41:59;99980.19;;;4.23;98.99
32298;BME280;18782;48.984;8.548;2022-12-05T04:44:31;99985.13;;;4.20;98.86
32298;BME280;18782;48.984;8.548;2022-12-05T04:47:02;99995.16;;;4.17;99.61
32298;BME280;18782;48.984;8.548;2022-12-05T04:49:34;99997.78;;;4.18;100.00
32298;BME280;18782;48.984;8.548;2022-12-05T04:52:06;99996.59;;;4.12;99.37
32298;BME280;18782;48.984;8.548;2022-12-05T04:54:38;100002.97;;;4.04;99.17
32298;BME280;18782;48.984;8.548;2022-12-05T04:57:09;100000.44;;;4.04;100.00
32298;BME280;18782;48.984;8.548;2022-12-05T04:59:38;99997.00;;;4.03;100.00
32298;BME280;18782;48.984;8.548;2022-12-05T05:02:08;100002.97;;;4.04;100.00
32298;BME280;18782;48.984;8.548;2022-12-05T05:04:39;99998.81;;;4.06;100.00
32298;BME280;18782;48.984;8.548;2022-12-05T05:07:10;100002.59;;;4.12;100.00
32298;BME280;18782;48.984;8.548;2022-12-05T05:09:39;99993.41;;;4.16;100.00
32298;BME280;18782;48.984;8.548;2022-12-05T05:12:07;99995.16;;;4.17;100.00
32298;BME280;18782;48.984;8.548;2022-12-05T05:14:41;99992.59;;;4.17;100.00
32298;BME280;18782;48.984;8.548;2022-12-05T05:17:08;99995.38;;;4.22;100.00
32298;BME280;18782;48.984;8.548;2022-12-05T05:19:37;99997.34;;;4.27;100.00
32298;BME280;18782;48.984;8.548;2022-12-05T05:22:05;99998.56;;;4.34;100.00
32298;BME280;18782;48.984;8.548;2022-12-05T05:24:32;100008.53;;;4.29;100.00
32298;BME280;18782;48.984;8.548;2022-12-05T05:27:00;100010.91;;;4.26;100.00
32298;BME280;18782;48.984;8.548;2022-12-05T05:29:27;100013.94;;;4.19;100.00
32298;BME280;18782;48.984;8.548;2022-12-05T05:31:55;100015.47;;;4.15;100.00
32298;BME280;18782;48.984;8.548;2022-12-05T05:34:23;100020.41;;;4.12;100.00
32298;BME280;18782;48.984;8.548;2022-12-05T05:36:53;100029.25;;;4.19;100.00
32298;BME280;18782;48.984;8.548;2022-12-05T05:39:20;100020.97;;;4.23;100.00
32298;BME280;18782;48.984;8.548;2022-12-05T05:41:48;100017.59;;;4.24;100.00
32298;BME280;18782;48.984;8.548;2022-12-05T05:44:16;100020.97;;;4.23;100.00
32298;BME280;18782;48.984;8.548;2022-12-05T05:46:43;100022.69;;;4.24;100.00
32298;BME280;18782;48.984;8.548;2022-12-05T05:49:11;100029.38;;;4.22;100.00
32298;BME280;18782;48.984;8.548;2022-12-05T05:51:38;100028.38;;;4.18;100.00
32298;BME280;18782;48.984;8.548;2022-12-05T05:54:08;100034.16;;;4.16;100.00
32298;BME280;18782;48.984;8.548;2022-12-05T05:56:36;100034.16;;;4.16;100.00
32298;BME280;18782;48.984;8.548;2022-12-05T05:59:06;100026.44;;;4.14;100.00
32298;BME280;18782;48.984;8.548;2022-12-05T06:01:34;100024.13;;;4.19;100.00
32298;BME280;18782;48.984;8.548;2022-12-05T06:04:01;100030.97;;;4.20;100.00
32298;BME280;18782;48.984;8.548;2022-12-05T06:06:29;100033.47;;;4.18;99.57
32298;BME280;18782;48.984;8.548;2022-12-05T06:08:57;100039.44;;;4.19;100.00
32298;BME280;18782;48.984;8.548;2022-12-05T06:11:26;100049.94;;;4.25;100.00
32298;BME280;18782;48.984;8.548;2022-12-05T06:13:55;100056.78;;;4.26;100.00
32298;BME280;18782;48.984;8.548;2022-12-05T06:16:23;100057.75;;;4.28;100.00
32298;BME280;18782;48.984;8.548;2022-12-05T06:18:51;100061.88;;;5.30;100.00
32298;BME280;18782;48.984;8.548;2022-12-05T06:21:20;100059.69;;;5.56;100.00
32298;BME280;18782;48.984;8.548;2022-12-05T06:23:48;100052.41;;;5.45;100.00
32298;BME280;18782;48.984;8.548;2022-12-05T06:26:17;100055.47;;;5.38;99.09
32298;BME280;18782;48.984;8.548;2022-12-05T06:28:47;100060.22;;;5.48;98.59
32298;BME280;18782;48.984;8.548;2022-12-05T06:31:16;100064.22;;;5.43;96.05
32298;BME280;18782;48.984;8.548;2022-12-05T06:33:45;100058.41;;;5.28;95.93
32298;BME280;18782;48.984;8.548;2022-12-05T06:36:14;100062.91;;;5.16;95.61
32298;BME280;18782;48.984;8.548;2022-12-05T06:38:43;100072.69;;;5.07;96.55
32298;BME280;18782;48.984;8.548;2022-12-05T06:41:13;100071.25;;;5.12;97.84
32298;BME280;18782;48.984;8.548;2022-12-05T06:43:41;100075.31;;;5.08;97.75
32298;BME280;18782;48.984;8.548;2022-12-05T06:46:12;100069.63;;;5.14;97.52
32298;BME280;18782;48.984;8.548;2022-12-05T06:48:40;100074.72;;;5.14;97.19
32298;BME280;18782;48.984;8.548;2022-12-05T06:51:08;100074.94;;;5.18;97.84
32298;BME280;18782;48.984;8.548;2022-12-05T06:53:36;100079.31;;;5.21;96.34
32298;BME280;18782;48.984;8.548;2022-12-05T06:56:06;100076.91;;;5.24;97.16
32298;BME280;18782;48.984;8.548;2022-12-05T06:58:34;100085.22;;;5.20;96.39
32298;BME280;18782;48.984;8.548;2022-12-05T07:01:02;100093.69;;;5.19;96.20
32298;BME280;18782;48.984;8.548;2022-12-05T07:03:48;100095.56;;;5.05;95.86
32298;BME280;18782;48.984;8.548;2022-12-05T07:06:16;100104.66;;;5.00;96.09
32298;BME280;18782;48.984;8.548;2022-12-05T07:08:44;100106.03;;;4.93;96.77
32298;BME280;18782;48.984;8.548;2022-12-05T07:11:12;100100.94;;;4.93;97.34
32298;BME280;18782;48.984;8.548;2022-12-05T07:13:40;100119.13;;;4.83;96.63
32298;BME280;18782;48.984;8.548;2022-12-05T07:16:08;100109.88;;;4.85;98.52
32298;BME280;18782;48.984;8.548;2022-12-05T07:18:36;100113.34;;;4.86;98.71
32298;BME280;18782;48.984;8.548;2022-12-05T07:21:07;100124.25;;;4.83;99.13
32298;BME280;18782;48.984;8.548;2022-12-05T07:23:38;100120.28;;;4.72;98.38
32298;BME280;18782;48.984;8.548;2022-12-05T07:26:08;100123.78;;;4.74;97.76
32298;BME280;18782;48.984;8.548;2022-12-05T07:28:36;100123.63;;;4.71;97.95
32298;BME280;18782;48.984;8.548;2022-12-05T07:31:05;100127.75;;;4.69;98.83
32298;BME280;18782;48.984;8.548;2022-12-05T07:33:33;100123.53;;;4.69;98.30
32298;BME280;18782;48.984;8.548;2022-12-05T07:36:03;100126.66;;;4.64;98.85
32298;BME280;18782;48.984;8.548;2022-12-05T07:38:32;100130.88;;;4.63;98.64
32298;BME280;18782;48.984;8.548;2022-12-05T07:41:03;100127.53;;;4.64;98.88
32298;BME280;18782;48.984;8.548;2022-12-05T07:43:38;100142.63;;;4.60;98.27
32298;BME280;18782;48.984;8.548;2022-12-05T07:46:07;100141.66;;;4.58;98.93
32298;BME280;18782;48.984;8.548;2022-12-05T07:48:36;100138.22;;;4.57;99.99
32298;BME280;18782;48.984;8.548;2022-12-05T07:51:06;100132.00;;;4.52;99.85
32298;BME280;18782;48.984;8.548;2022-12-05T07:53:36;100136.41;;;4.55;99.64
32298;BME280;18782;48.984;8.548;2022-12-05T07:56:06;100142.78;;;4.47;99.72
32298;BME280;18782;48.984;8.548;2022-12-05T07:58:34;100143.34;;;4.41;99.57
32298;BME280;18782;48.984;8.548;2022-12-05T08:01:06;100145.81;;;4.39;99.89
32298;BME280;18782;48.984;8.548;2022-12-05T08:03:34;100138.94;;;4.38;100.00
32298;BME280;18782;48.984;8.548;2022-12-05T08:06:03;100139.28;;;4.44;100.00
32298;BME280;18782;48.984;8.548;2022-12-05T08:08:31;100142.06;;;4.49;100.00
32298;BME280;18782;48.984;8.548;2022-12-05T08:11:03;100144.75;;;4.68;100.00
32298;BME280;18782;48.984;8.548;2022-12-05T08:13:31;100142.28;;;4.70;100.00
32298;BME280;18782;48.984;8.548;2022-12-05T08:16:00;100144.16;;;4.74;100.00
32298;BME280;18782;48.984;8.548;2022-12-05T08:18:29;100143.31;;;4.74;99.03
32298;BME280;18782;48.984;8.548;2022-12-05T08:21:00;100150.16;;;4.75;99.70
32298;BME280;18782;48.984;8.548;2022-12-05T08:23:29;100157.59;;;4.70;100.00
32298;BME280;18782;48.984;8.548;2022-12-05T08:26:00;100155.81;;;4.69;100.00
32298;BME280;18782;48.984;8.548;2022-12-05T08:28:30;100167.22;;;4.76;100.00
32298;BME280;18782;48.984;8.548;2022-12-05T08:31:02;100166.19;;;4.72;99.17
32298;BME280;18782;48.984;8.548;2022-12-05T08:33:30;100169.44;;;4.69;99.85
32298;BME280;18782;48.984;8.548;2022-12-05T08:35:59;100164.25;;;4.68;99.42
32298;BME280;18782;48.984;8.548;2022-12-05T08:38:27;100168.31;;;4.64;99.03
32298;BME280;18782;48.984;8.548;2022-12-05T08:40:55;100170.25;;;4.68;98.99
32298;BME280;18782;48.984;8.548;2022-12-05T08:43:22;100171.09;;;4.69;99.83
32298;BME280;18782;48.984;8.548;2022-12-05T08:45:51;100173.66;;;4.69;99.79
32298;BME280;18782;48.984;8.548;2022-12-05T08:48:19;100175.97;;;4.64;99.46
32298;BME280;18782;48.984;8.548;2022-12-05T08:50:55;100175.34;;;4.68;99.13
32298;BME280;18782;48.984;8.548;2022-12-05T08:53:23;100178.31;;;4.76;99.53
32298;BME280;18782;48.984;8.548;2022-12-05T08:55:50;100184.41;;;4.80;99.92
32298;BME280;18782;48.984;8.548;2022-12-05T08:58:18;100181.97;;;4.81;99.69
32298;BME280;18782;48.984;8.548;2022-12-05T09:00:46;100191.19;;;4.79;99.04
32298;BME280;18782;48.984;8.548;2022-12-05T09:03:15;100195.47;;;4.80;99.44
32298;BME280;18782;48.984;8.548;2022-12-05T09:05:42;100200.59;;;4.80;99.40
32298;BME280;18782;48.984;8.548;2022-12-05T09:08:10;100196.47;;;4.82;99.29
32298;BME280;18782;48.984;8.548;2022-12-05T09:10:37;100208.34;;;4.82;99.82
32298;BME280;18782;48.984;8.548;2022-12-05T09:13:05;100212.88;;;4.87;99.24
32298;BME280;18782;48.984;8.548;2022-12-05T09:15:33;100213.00;;;4.90;99.65
32298;BME280;18782;48.984;8.548;2022-12-05T09:18:00;100220.03;;;4.94;99.94
32298;BME280;18782;48.984;8.548;2022-12-05T09:20:29;100220.19;;;4.97;99.39
32298;BME280;18782;48.984;8.548;2022-12-05T09:22:57;100225.38;;;4.99;98.63
32298;BME280;18782;48.984;8.548;2022-12-05T09:25:24;100226.66;;;5.07;99.35
32298;BME280;18782;48.984;8.548;2022-12-05T09:27:52;100225.91;;;5.10;98.79
32298;BME280;18782;48.984;8.548;2022-12-05T09:30:20;100234.53;;;5.12;98.37
32298;BME280;18782;48.984;8.548;2022-12-05T09:32:47;100232.38;;;5.19;97.41
32298;BME280;18782;48.984;8.548;2022-12-05T09:35:15;100239.78;;;5.15;96.08
32298;BME280;18782;48.984;8.548;2022-12-05T09:37:44;100244.88;;;5.15;96.90
32298;BME280;18782;48.984;8.548;2022-12-05T09:40:14;100257.00;;;5.19;97.10
32298;BME280;18782;48.984;8.548;2022-12-05T09:42:56;100257.34;;;5.09;96.43
32298;BME280;18782;48.984;8.548;2022-12-05T09:45:28;100261.63;;;5.10;96.91
32298;BME280;18782;48.984;8.548;2022-12-05T09:48:05;100250.31;;;5.05;97.04
32298;BME280;18782;48.984;8.548;2022-12-05T09:50:39;100241.72;;;5.03;97.26
32298;BME280;18782;48.984;8.548;2022-12-05T09:53:14;100234.06;;;5.03;97.40
32298;BME280;18782;48.984;8.548;2022-12-05T09:55:48;100239.47;;;5.09;98.26
32298;BME280;18782;48.984;8.548;2022-12-05T09:58:35;100234.69;;;5.15;98.03
32298;BME280;18782;48.984;8.548;2022-12-05T10:01:26;100236.28;;;5.13;96.66
32298;BME280;18782;48.984;8.548;2022-12-05T10:04:11;100238.75;;;5.11;97.72
32298;BME280;18782;48.984;8.548;2022-12-05T10:06:49;100241.09;;;5.07;98.24
32298;BME280;18782;48.984;8.548;2022-12-05T10:09:37;100247.94;;;5.08;97.80
32298;BME280;18782;48.984;8.548;2022-12-05T10:12:15;100249.50;;;5.06;98.62
32298;BME280;18782;48.984;8.548;2022-12-05T10:14:52;100246.97;;;5.06;97.98
32298;BME280;18782;48.984;8.548;2022-12-05T10:17:27;100249.50;;;5.06;98.56
32298;BME280;18782;48.984;8.548;2022-12-05T10:20:02;100246.03;;;5.04;98.28
32298;BME280;18782;48.984;8.548;2022-12-05T10:22:37;100242.66;;;5.05;98.58
32298;BME280;18782;48.984;8.548;2022-12-05T10:25:11;100241.22;;;5.10;98.90
32298;BME280;18782;48.984;8.548;2022-12-05T10:27:46;100241.47;;;5.14;97.95
32298;BME280;18782;48.984;8.548;2022-12-05T10:30:16;100247.38;;;5.13;98.53
32298;BME280;18782;48.984;8.548;2022-12-05T10:32:51;100238.91;;;5.14;98.57
32298;BME280;18782;48.984;8.548;2022-12-05T10:35:21;100241.47;;;5.14;98.35
32298;BME280;18782;48.984;8.548;2022-12-05T10:37:52;100232.28;;;5.18;98.40
32298;BME280;18782;48.984;8.548;2022-12-05T10:40:22;100231.66;;;5.22;98.29
32298;BME280;18782;48.984;8.548;2022-12-05T10:42:51;100231.97;;;5.28;98.74
32298;BME280;18782;48.984;8.548;2022-12-05T10:45:20;100232.38;;;5.37;98.60
32298;BME280;18782;48.984;8.548;2022-12-05T10:47:52;100230.47;;;5.49;98.07
32298;BME280;18782;48.984;8.548;2022-12-05T10:50:24;100227.56;;;5.60;97.91
32298;BME280;18782;48.984;8.548;2022-12-05T10:52:53;100212.88;;;5.73;96.46
32298;BME280;18782;48.984;8.548;2022-12-05T10:55:29;100217.72;;;5.85;96.62
32298;BME280;18782;48.984;8.548;2022-12-05T10:58:12;100213.06;;;5.94;95.77
32298;BME280;18782;48.984;8.548;2022-12-05T11:00:45;100219.25;;;5.99;95.04
32298;BME280;18782;48.984;8.548;2022-12-05T11:03:23;100227.06;;;6.03;93.99
32298;BME280;18782;48.984;8.548;2022-12-05T11:05:54;100221.97;;;6.03;93.13
32298;BME280;18782;48.984;8.548;2022-12-05T11:08:24;100222.91;;;6.05;93.13
32298;BME280;18782;48.984;8.548;2022-12-05T11:11:19;100219.16;;;6.16;99.58
32298;BME280;18782;48.984;8.548;2022-12-05T11:13:52;100216.47;;;6.13;97.14
32298;BME280;18782;48.984;8.548;2022-12-05T11:16:22;100216.59;;;6.16;93.92
32298;BME280;18782;48.984;8.548;2022-12-05T11:18:50;100219.31;;;6.19;93.64
32298;BME280;18782;48.984;8.548;2022-12-05T11:21:18;100214.47;;;6.25;93.09
32298;BME280;18782;48.984;8.548;2022-12-05T11:23:46;100217.25;;;6.30;92.33
32298;BME280;18782;48.984;8.548;2022-12-05T11:26:33;100216.81;;;6.38;91.41
32298;BME280;18782;48.984;8.548;2022-12-05T11:29:01;100220.94;;;6.54;91.29
32298;BME280;18782;48.984;8.548;2022-12-05T11:31:30;100212.09;;;6.86;90.80
32298;BME280;18782;48.984;8.548;2022-12-05T11:34:08;100207.44;;;7.16;89.24
32298;BME280;18782;48.984;8.548;2022-12-05T11:36:40;100210.63;;;7.52;86.39
32298;BME280;18782;48.984;8.548;2022-12-05T11:39:11;100208.16;;;7.76;86.25
32298;BME280;18782;48.984;8.548;2022-12-05T11:41:58;100208.22;;;8.21;88.01
32298;BME280;18782;48.984;8.548;2022-12-05T11:44:43;100210.97;;;8.26;83.96
32298;BME280;18782;48.984;8.548;2022-12-05T11:47:21;100206.97;;;8.34;81.32
32298;BME280;18782;48.984;8.548;2022-12-05T11:50:06;100197.91;;;8.20;81.71
32298;BME280;18782;48.984;8.548;2022-12-05T11:52:53;100198.66;;;7.95;80.60
32298;BME280;18782;48.984;8.548;2022-12-05T11:55:25;100201.13;;;7.71;82.38
32298;BME280;18782;48.984;8.548;2022-12-05T11:58:09;100198.59;;;7.72;81.89
32298;BME280;18782;48.984;8.548;2022-12-05T12:00:52;100196.63;;;7.44;82.76
32298;BME280;18782;48.984;8.548;2022-12-05T12:03:33;100202.50;;;7.21;82.82
32298;BME280;18782;48.984;8.548;2022-12-05T12:06:21;100201.03;;;7.06;84.68
32298;BME280;18782;48.984;8.548;2022-12-05T12:09:10;100194.88;;;6.82;84.85
32298;BME280;18782;48.984;8.548;2022-12-05T12:11:44;100192.66;;;6.70;85.75
32298;BME280;18782;48.984;8.548;2022-12-05T12:14:22;100190.16;;;6.72;86.10
32298;BME280;18782;48.984;8.548;2022-12-05T12:16:58;100189.94;;;6.67;86.13
32298;BME280;18782;48.984;8.548;2022-12-05T12:19:40;100200.94;;;6.65;86.24
32298;BME280;18782;48.984;8.548;2022-12-05T12:22:22;100192.44;;;6.66;86.95
32298;BME280;18782;48.984;8.548;2022-12-05T12:25:07;100200.78;;;6.62;87.23
32298;BME280;18782;48.984;8.548;2022-12-05T12:27:53;100213.06;;;6.69;88.24
32298;BME280;18782;48.984;8.548;2022-12-05T12:30:43;100191.63;;;6.86;87.83
32298;BME280;18782;48.984;8.548;2022-12-05T12:33:27;100191.91;;;6.92;86.82
32298;BME280;18782;48.984;8.548;2022-12-05T12:36:01;100192.84;;;6.94;86.53
32298;BME280;18782;48.984;8.548;2022-12-05T12:38:48;100186.03;;;6.95;86.60
32298;BME280;18782;48.984;8.548;2022-12-05T12:41:34;100189.75;;;6.82;86.36
32298;BME280;18782;48.984;8.548;2022-12-05T12:44:23;100191.78;;;6.70;87.13
32298;BME280;18782;48.984;8.548;2022-12-05T12:47:02;100197.16;;;6.57;87.89
32298;BME280;18782;48.984;8.548;2022-12-05T12:49:41;100198.03;;;6.57;88.48
32298;BME280;18782;48.984;8.548;2022-12-05T12:52:17;100202.25;;;6.57;88.39
32298;BME280;18782;48.984;8.548;2022-12-05T12:55:09;100193.06;;;6.60;88.95
32298;BME280;18782;48.984;8.548;2022-12-05T12:57:54;100202.69;;;6.66;89.24
32298;BME280;18782;48.984;8.548;2022-12-05T13:00:34;100199.97;;;6.82;88.22
32298;BME280;18782;48.984;8.548;2022-12-05T13:03:10;100197.81;;;6.91;88.31
32298;BME280;18782;48.984;8.548;2022-12-05T13:05:43;100189.59;;;6.98;86.86
32298;BME280;18782;48.984;8.548;2022-12-05T13:08:15;100193.16;;;7.02;87.84
32298;BME280;18782;48.984;8.548;2022-12-05T13:10:47;100197.91;;;7.14;88.08
32298;BME280;18782;48.984;8.548;2022-12-05T13:13:18;100196.69;;;7.25;87.99
32298;BME280;18782;48.984;8.548;2022-12-05T13:15:50;100192.44;;;7.25;86.65
32298;BME280;18782;48.984;8.548;2022-12-05T13:18:20;100193.31;;;7.26;87.18
32298;BME280;18782;48.984;8.548;2022-12-05T13:20:50;100197.66;;;7.07;86.46
32298;BME280;18782;48.984;8.548;2022-12-05T13:23:21;100197.16;;;6.95;87.68
32298;BME280;18782;48.984;8.548;2022-12-05T13:25:51;100199.91;;;7.00;88.18
32298;BME280;18782;48.984;8.548;2022-12-05T13:28:26;100198.91;;;6.96;88.46
32298;BME280;18782;48.984;8.548;2022-12-05T13:30:56;100189.47;;;6.95;88.13